Topsail Beach, NC

6:21 AM EDT on September 22, 2014 (GMT -0400)
Bogue McAlf | Change Station
CLOSE
Current Station
Airport
Location: Swansboro,
Elevation: 23 ft
Nearby Weather Stations

Elev 23 ft 34.69 °N, 77.03 °W | Updated 24 minutes ago

Mostly Cloudy
Mostly Cloudy
74 °F
Feels Like 74 °F
N
6
Wind Variable Wind from Variable

Today
High -- | Low -- °F
--% Chance of Precip.
Yesterday
High -- | Low -- °F
Precip. -- in
6:58 AM 7:06 PM
Waning Crescent, 3% visible
Pressure 29.94 in
Visibility 10.0 miles
Clouds Few 6000 ft
Mostly Cloudy 10000 ft
Dew Point 65 °F
Humidity 73%
Rainfall 0.00 in
Snow Depth Not available.
UV 0 out of 12
Pollen 5.20 out of 12
Air Quality Not available.
Flu Activity Not available.
METAR KNJM 220957Z AUTO VRB05KT 10SM FEW060 BKN100 23/18 A2992 RMK AO2 SLP136 T02330183 $

More Conditions Fewer Conditions

Pressure 29.94 in
Visibility 10.0 miles
Clouds Few 6000 ft
Mostly Cloudy 10000 ft
Dew Point 65 °F
Humidity 73%
Rainfall 0.00 in
Snow Depth Not available.
UV 0 out of 12
Pollen 5.20 out of 12
Air Quality Not available.
Flu Activity Not available.
METAR KNJM 220957Z AUTO VRB05KT 10SM FEW060 BKN100 23/18 A2992 RMK AO2 SLP136 T02330183 $

More Conditions Fewer Conditions

10-Day Weather Forecast

Almanac

Astronomy

Sep. 22, 2014 Rise Set
Actual Time 6:58 AM EDT 7:06 PM EDT
Civil Twilight 6:32 AM EDT 7:31 PM EDT
Nautical Twilight 6:03 AM EDT 8:01 PM EDT
Astronomical Twilight 5:33 AM EDT 8:30 PM EDT
Moon 5:27 AM EDT 6:11 PM EDT
Length of Visible Light 12h 58m
Length of Day
12h 08m
Tomorrow will be 2m 8s shorter.
Waning Crescent, 3% of the Moon is Illuminated
Today
Waning Crescent
Sep 24
New
Oct 1
First Quarter
Oct 8
Full
Oct 15
Last Quarter

Today's Extremes

State Highs State Lows

Community

WunderPhotos

Upload Photos

1,755,406 photos uploaded!

Nearby

Snow Depth

Station Depth Elevation
No new snow has been reported.

Earthquake Activity

City Distance Mag. Time & Date
No recent earthquake activity has been reported nearby.
Minimum magnitude displayed is 2.5.

Coastal Water Temperatures

Place Temperature
Beaufort, NC 75.0 °F
Johnny Mercer Pier, Wrightsville Beach, NC 80.1 °F
Hatteras, NC 73.9 °F
Oregon Inlet Marina, NC 75.0 °F

Nearby Weather Stations